sensor_id;sensor_type;location;lat;lon;timestamp;pressure;altitude;pressure_sealevel;temperature;humidity
53719;BME280;39616;48.872;9.390;2022-12-18T00:01:45;99508.06;;;-11.57;100.00
53719;BME280;39616;48.872;9.390;2022-12-18T00:04:20;99504.06;;;-11.61;100.00
53719;BME280;39616;48.872;9.390;2022-12-18T00:06:52;99502.66;;;-11.65;100.00
53719;BME280;39616;48.872;9.390;2022-12-18T00:09:22;99512.97;;;-11.64;100.00
53719;BME280;39616;48.872;9.390;2022-12-18T00:11:52;99511.06;;;-11.62;100.00
53719;BME280;39616;48.872;9.390;2022-12-18T00:14:23;99503.91;;;-11.60;100.00
53719;BME280;39616;48.872;9.390;2022-12-18T00:16:53;99496.44;;;-11.64;100.00
53719;BME280;39616;48.872;9.390;2022-12-18T00:19:23;99499.31;;;-11.68;100.00
53719;BME280;39616;48.872;9.390;2022-12-18T00:21:54;99497.22;;;-11.74;100.00
53719;BME280;39616;48.872;9.390;2022-12-18T00:24:24;99502.00;;;-11.58;100.00
53719;BME280;39616;48.872;9.390;2022-12-18T00:26:54;99512.00;;;-11.52;100.00
53719;BME280;39616;48.872;9.390;2022-12-18T00:29:25;99513.25;;;-11.46;100.00
53719;BME280;39616;48.872;9.390;2022-12-18T00:31:55;99512.38;;;-11.35;100.00
53719;BME280;39616;48.872;9.390;2022-12-18T00:34:25;99514.09;;;-11.25;100.00
53719;BME280;39616;48.872;9.390;2022-12-18T00:36:55;99517.69;;;-11.26;100.00
53719;BME280;39616;48.872;9.390;2022-12-18T00:39:26;99506.47;;;-11.28;100.00
53719;BME280;39616;48.872;9.390;2022-12-18T00:41:56;99511.16;;;-11.31;100.00
53719;BME280;39616;48.872;9.390;2022-12-18T00:44:45;99517.28;;;-11.42;100.00
53719;BME280;39616;48.872;9.390;2022-12-18T00:47:15;99510.13;;;-11.61;100.00
53719;BME280;39616;48.872;9.390;2022-12-18T00:49:45;99513.75;;;-11.73;100.00
53719;BME280;39616;48.872;9.390;2022-12-18T00:52:16;99514.66;;;-11.84;100.00
53719;BME280;39616;48.872;9.390;2022-12-18T00:54:46;99515.31;;;-11.82;100.00
53719;BME280;39616;48.872;9.390;2022-12-18T00:57:16;99513.41;;;-11.80;100.00
53719;BME280;39616;48.872;9.390;2022-12-18T00:59:47;99509.13;;;-11.81;100.00
53719;BME280;39616;48.872;9.390;2022-12-18T01:02:17;99496.81;;;-11.90;100.00
53719;BME280;39616;48.872;9.390;2022-12-18T01:04:47;99491.00;;;-11.94;100.00
53719;BME280;39616;48.872;9.390;2022-12-18T01:07:17;99496.47;;;-11.97;100.00
53719;BME280;39616;48.872;9.390;2022-12-18T01:09:48;99503.25;;;-11.94;100.00
53719;BME280;39616;48.872;9.390;2022-12-18T01:12:18;99503.47;;;-11.86;100.00
53719;BME280;39616;48.872;9.390;2022-12-18T01:14:48;99508.59;;;-11.84;100.00
53719;BME280;39616;48.872;9.390;2022-12-18T01:17:19;99505.69;;;-11.81;100.00
53719;BME280;39616;48.872;9.390;2022-12-18T01:19:49;99504.50;;;-11.77;100.00
53719;BME280;39616;48.872;9.390;2022-12-18T01:22:19;99508.56;;;-11.63;100.00
53719;BME280;39616;48.872;9.390;2022-12-18T01:24:50;99513.13;;;-11.65;100.00
53719;BME280;39616;48.872;9.390;2022-12-18T01:27:20;99517.13;;;-11.61;100.00
53719;BME280;39616;48.872;9.390;2022-12-18T01:29:50;99522.22;;;-11.60;100.00
53719;BME280;39616;48.872;9.390;2022-12-18T01:32:21;99532.94;;;-11.52;100.00
53719;BME280;39616;48.872;9.390;2022-12-18T01:34:52;99531.88;;;-11.60;100.00
53719;BME280;39616;48.872;9.390;2022-12-18T01:37:22;99529.97;;;-11.58;100.00
53719;BME280;39616;48.872;9.390;2022-12-18T01:39:52;99523.44;;;-11.64;100.00
53719;BME280;39616;48.872;9.390;2022-12-18T01:42:24;99531.09;;;-11.72;100.00
53719;BME280;39616;48.872;9.390;2022-12-18T01:47:27;99532.56;;;-12.11;100.00
53719;BME280;39616;48.872;9.390;2022-12-18T01:50:02;99523.91;;;-12.23;100.00
53719;BME280;39616;48.872;9.390;2022-12-18T01:52:33;99523.66;;;-12.20;100.00
53719;BME280;39616;48.872;9.390;2022-12-18T01:55:08;99527.13;;;-12.20;100.00
53719;BME280;39616;48.872;9.390;2022-12-18T01:57:40;99522.50;;;-12.27;100.00
53719;BME280;39616;48.872;9.390;2022-12-18T02:00:15;99525.34;;;-12.30;100.00
53719;BME280;39616;48.872;9.390;2022-12-18T02:02:47;99529.50;;;-12.28;100.00
53719;BME280;39616;48.872;9.390;2022-12-18T02:05:22;99523.09;;;-12.24;100.00
53719;BME280;39616;48.872;9.390;2022-12-18T02:27:49;99524.44;;;-11.97;100.00
53719;BME280;39616;48.872;9.390;2022-12-18T02:30:21;99540.59;;;-11.92;100.00
53719;BME280;39616;48.872;9.390;2022-12-18T02:32:52;99535.59;;;-11.84;100.00
53719;BME280;39616;48.872;9.390;2022-12-18T02:35:26;99536.97;;;-11.80;100.00
53719;BME280;39616;48.872;9.390;2022-12-18T02:37:57;99525.66;;;-11.80;100.00
53719;BME280;39616;48.872;9.390;2022-12-18T02:40:29;99518.41;;;-11.77;100.00
53719;BME280;39616;48.872;9.390;2022-12-18T02:43:11;99525.75;;;-11.71;100.00
53719;BME280;39616;48.872;9.390;2022-12-18T02:45:52;99532.50;;;-11.68;100.00
53719;BME280;39616;48.872;9.390;2022-12-18T02:48:29;99537.50;;;-11.65;100.00
53719;BME280;39616;48.872;9.390;2022-12-18T02:53:33;99544.63;;;-11.67;100.00
53719;BME280;39616;48.872;9.390;2022-12-18T02:56:13;99539.09;;;-11.74;100.00
53719;BME280;39616;48.872;9.390;2022-12-18T03:01:38;99545.84;;;-11.92;100.00
53719;BME280;39616;48.872;9.390;2022-12-18T03:04:42;99556.31;;;-11.92;100.00
53719;BME280;39616;48.872;9.390;2022-12-18T03:07:18;99545.25;;;-11.96;100.00
53719;BME280;39616;48.872;9.390;2022-12-18T03:09:52;99552.38;;;-11.98;100.00
53719;BME280;39616;48.872;9.390;2022-12-18T03:12:30;99561.66;;;-11.94;100.00
53719;BME280;39616;48.872;9.390;2022-12-18T03:15:09;99552.72;;;-11.91;100.00
53719;BME280;39616;48.872;9.390;2022-12-18T03:17:45;99547.34;;;-11.89;100.00
53719;BME280;39616;48.872;9.390;2022-12-18T03:20:19;99550.44;;;-11.84;100.00
53719;BME280;39616;48.872;9.390;2022-12-18T03:22:54;99545.88;;;-11.82;100.00
53719;BME280;39616;48.872;9.390;2022-12-18T03:25:27;99550.38;;;-11.73;100.00
53719;BME280;39616;48.872;9.390;2022-12-18T03:27:59;99555.22;;;-11.69;100.00
53719;BME280;39616;48.872;9.390;2022-12-18T03:30:33;99557.81;;;-11.57;100.00
53719;BME280;39616;48.872;9.390;2022-12-18T03:33:24;99558.28;;;-11.52;100.00
53719;BME280;39616;48.872;9.390;2022-12-18T03:35:56;99560.19;;;-11.54;100.00
53719;BME280;39616;48.872;9.390;2022-12-18T03:38:26;99555.81;;;-11.65;100.00
53719;BME280;39616;48.872;9.390;2022-12-18T03:41:14;99550.38;;;-11.73;100.00
53719;BME280;39616;48.872;9.390;2022-12-18T03:46:58;99570.09;;;-12.01;100.00
53719;BME280;39616;48.872;9.390;2022-12-18T03:49:56;99568.34;;;-12.12;100.00
53719;BME280;39616;48.872;9.390;2022-12-18T03:52:41;99558.38;;;-12.07;100.00
53719;BME280;39616;48.872;9.390;2022-12-18T03:55:15;99563.56;;;-11.96;100.00
53719;BME280;39616;48.872;9.390;2022-12-18T03:57:48;99560.38;;;-11.99;100.00
53719;BME280;39616;48.872;9.390;2022-12-18T04:00:19;99558.34;;;-11.96;100.00
53719;BME280;39616;48.872;9.390;2022-12-18T04:02:54;99555.03;;;-12.09;100.00
53719;BME280;39616;48.872;9.390;2022-12-18T04:05:28;99551.81;;;-12.12;100.00
53719;BME280;39616;48.872;9.390;2022-12-18T04:08:00;99548.84;;;-12.08;100.00
53719;BME280;39616;48.872;9.390;2022-12-18T04:10:31;99550.84;;;-12.00;100.00
53719;BME280;39616;48.872;9.390;2022-12-18T04:13:01;99552.00;;;-11.93;100.00
53719;BME280;39616;48.872;9.390;2022-12-18T04:15:36;99547.72;;;-11.94;100.00
53719;BME280;39616;48.872;9.390;2022-12-18T04:18:07;99552.00;;;-11.93;100.00
53719;BME280;39616;48.872;9.390;2022-12-18T04:20:37;99551.19;;;-11.94;100.00
53719;BME280;39616;48.872;9.390;2022-12-18T04:23:08;99548.94;;;-11.98;100.00
53719;BME280;39616;48.872;9.390;2022-12-18T04:25:38;99552.38;;;-11.98;100.00
53719;BME280;39616;48.872;9.390;2022-12-18T04:28:08;99563.31;;;-11.93;100.00
53719;BME280;39616;48.872;9.390;2022-12-18T04:30:39;99558.09;;;-11.93;100.00
53719;BME280;39616;48.872;9.390;2022-12-18T04:33:10;99556.16;;;-11.90;100.00
53719;BME280;39616;48.872;9.390;2022-12-18T04:35:41;99560.44;;;-11.89;100.00
53719;BME280;39616;48.872;9.390;2022-12-18T04:38:12;99571.03;;;-11.91;100.00
53719;BME280;39616;48.872;9.390;2022-12-18T04:40:43;99573.22;;;-11.96;100.00
53719;BME280;39616;48.872;9.390;2022-12-18T04:43:13;99576.41;;;-11.93;100.00
53719;BME280;39616;48.872;9.390;2022-12-18T04:45:43;99576.34;;;-11.81;100.00
53719;BME280;39616;48.872;9.390;2022-12-18T04:48:13;99570.59;;;-11.75;100.00
53719;BME280;39616;48.872;9.390;2022-12-18T04:50:44;99567.84;;;-11.62;100.00
53719;BME280;39616;48.872;9.390;2022-12-18T04:53:14;99570.44;;;-11.62;100.00
53719;BME280;39616;48.872;9.390;2022-12-18T04:55:44;99563.22;;;-11.70;100.00
53719;BME280;39616;48.872;9.390;2022-12-18T04:58:15;99568.59;;;-11.83;100.00
53719;BME280;39616;48.872;9.390;2022-12-18T05:00:45;99572.94;;;-11.93;100.00
53719;BME280;39616;48.872;9.390;2022-12-18T05:03:16;99562.84;;;-11.98;100.00
53719;BME280;39616;48.872;9.390;2022-12-18T05:05:49;99570.59;;;-11.96;100.00
53719;BME280;39616;48.872;9.390;2022-12-18T05:08:21;99567.13;;;-11.97;100.00
53719;BME280;39616;48.872;9.390;2022-12-18T05:11:05;99568.56;;;-11.93;100.00
53719;BME280;39616;48.872;9.390;2022-12-18T05:13:35;99570.91;;;-11.89;100.00
53719;BME280;39616;48.872;9.390;2022-12-18T05:16:06;99558.69;;;-11.89;100.00
53719;BME280;39616;48.872;9.390;2022-12-18T05:18:37;99568.88;;;-11.86;100.00
53719;BME280;39616;48.872;9.390;2022-12-18T05:21:08;99562.56;;;-11.83;100.00
53719;BME280;39616;48.872;9.390;2022-12-18T05:23:38;99558.91;;;-11.71;100.00
53719;BME280;39616;48.872;9.390;2022-12-18T05:26:14;99560.72;;;-11.72;100.00
53719;BME280;39616;48.872;9.390;2022-12-18T05:28:45;99556.19;;;-11.70;100.00
53719;BME280;39616;48.872;9.390;2022-12-18T05:31:16;99551.88;;;-11.59;100.00
53719;BME280;39616;48.872;9.390;2022-12-18T05:33:46;99554.06;;;-11.44;100.00
53719;BME280;39616;48.872;9.390;2022-12-18T05:36:19;99555.56;;;-11.30;100.00
53719;BME280;39616;48.872;9.390;2022-12-18T05:38:49;99555.75;;;-11.22;100.00
53719;BME280;39616;48.872;9.390;2022-12-18T05:41:19;99563.72;;;-11.02;100.00
53719;BME280;39616;48.872;9.390;2022-12-18T05:43:50;99558.88;;;-10.86;100.00
53719;BME280;39616;48.872;9.390;2022-12-18T05:46:20;99569.94;;;-10.73;100.00
53719;BME280;39616;48.872;9.390;2022-12-18T05:48:51;99560.03;;;-10.69;100.00
53719;BME280;39616;48.872;9.390;2022-12-18T05:51:22;99570.25;;;-10.66;100.00
53719;BME280;39616;48.872;9.390;2022-12-18T05:53:52;99560.88;;;-10.68;100.00
53719;BME280;39616;48.872;9.390;2022-12-18T05:56:22;99567.72;;;-10.77;100.00
53719;BME280;39616;48.872;9.390;2022-12-18T05:58:53;99585.81;;;-10.74;100.00
53719;BME280;39616;48.872;9.390;2022-12-18T06:01:25;99581.16;;;-10.71;100.00
53719;BME280;39616;48.872;9.390;2022-12-18T06:03:56;99572.41;;;-10.81;100.00
53719;BME280;39616;48.872;9.390;2022-12-18T06:06:28;99571.81;;;-10.84;100.00
53719;BME280;39616;48.872;9.390;2022-12-18T06:08:58;99576.13;;;-11.04;100.00
53719;BME280;39616;48.872;9.390;2022-12-18T06:11:29;99565.25;;;-11.21;100.00
53719;BME280;39616;48.872;9.390;2022-12-18T06:13:59;99565.38;;;-11.43;100.00
53719;BME280;39616;48.872;9.390;2022-12-18T06:16:30;99565.03;;;-11.50;100.00
53719;BME280;39616;48.872;9.390;2022-12-18T06:19:03;99568.84;;;-11.54;100.00
53719;BME280;39616;48.872;9.390;2022-12-18T06:21:34;99581.69;;;-11.51;100.00
53719;BME280;39616;48.872;9.390;2022-12-18T06:24:05;99578.50;;;-11.54;100.00
53719;BME280;39616;48.872;9.390;2022-12-18T06:26:37;99581.94;;;-11.54;100.00
53719;BME280;39616;48.872;9.390;2022-12-18T06:29:08;99585.28;;;-11.52;100.00
53719;BME280;39616;48.872;9.390;2022-12-18T06:31:39;99576.09;;;-11.46;100.00
53719;BME280;39616;48.872;9.390;2022-12-18T06:34:10;99585.16;;;-11.50;100.00
53719;BME280;39616;48.872;9.390;2022-12-18T06:36:40;99582.78;;;-11.53;100.00
53719;BME280;39616;48.872;9.390;2022-12-18T06:39:11;99579.34;;;-11.54;100.00
53719;BME280;39616;48.872;9.390;2022-12-18T06:41:41;99570.31;;;-11.61;100.00
53719;BME280;39616;48.872;9.390;2022-12-18T06:44:11;99581.28;;;-11.67;100.00
53719;BME280;39616;48.872;9.390;2022-12-18T06:46:41;99581.69;;;-11.83;100.00
53719;BME280;39616;48.872;9.390;2022-12-18T06:49:12;99584.31;;;-11.83;100.00
53719;BME280;39616;48.872;9.390;2022-12-18T06:51:42;99591.34;;;-11.83;100.00
53719;BME280;39616;48.872;9.390;2022-12-18T06:54:13;99588.88;;;-11.85;100.00
53719;BME280;39616;48.872;9.390;2022-12-18T06:56:45;99588.56;;;-11.82;100.00
53719;BME280;39616;48.872;9.390;2022-12-18T06:59:15;99594.38;;;-11.78;100.00
53719;BME280;39616;48.872;9.390;2022-12-18T07:01:46;99612.47;;;-11.75;100.00
53719;BME280;39616;48.872;9.390;2022-12-18T07:04:16;99607.13;;;-11.74;100.00
53719;BME280;39616;48.872;9.390;2022-12-18T07:06:46;99608.06;;;-11.75;100.00
53719;BME280;39616;48.872;9.390;2022-12-18T07:09:17;99605.09;;;-11.70;100.00
53719;BME280;39616;48.872;9.390;2022-12-18T07:11:47;99603.94;;;-11.77;100.00
53719;BME280;39616;48.872;9.390;2022-12-18T07:14:17;99612.22;;;-11.72;100.00
53719;BME280;39616;48.872;9.390;2022-12-18T07:16:48;99612.13;;;-11.71;100.00
53719;BME280;39616;48.872;9.390;2022-12-18T07:19:18;99612.69;;;-11.67;100.00
53719;BME280;39616;48.872;9.390;2022-12-18T07:21:50;99615.88;;;-11.63;100.00
53719;BME280;39616;48.872;9.390;2022-12-18T07:24:20;99618.50;;;-11.52;100.00
53719;BME280;39616;48.872;9.390;2022-12-18T07:26:50;99613.94;;;-11.50;100.00
53719;BME280;39616;48.872;9.390;2022-12-18T07:29:21;99626.06;;;-11.49;100.00
53719;BME280;39616;48.872;9.390;2022-12-18T07:31:51;99628.81;;;-11.51;100.00
53719;BME280;39616;48.872;9.390;2022-12-18T07:34:21;99630.63;;;-11.51;100.00
53719;BME280;39616;48.872;9.390;2022-12-18T07:36:52;99638.34;;;-11.50;100.00
53719;BME280;39616;48.872;9.390;2022-12-18T07:39:22;99634.50;;;-11.46;100.00
53719;BME280;39616;48.872;9.390;2022-12-18T07:41:52;99632.38;;;-11.40;100.00
53719;BME280;39616;48.872;9.390;2022-12-18T07:44:41;99640.88;;;-11.27;100.00
53719;BME280;39616;48.872;9.390;2022-12-18T07:47:11;99638.78;;;-11.12;100.00
53719;BME280;39616;48.872;9.390;2022-12-18T07:49:42;99635.09;;;-10.89;100.00
53719;BME280;39616;48.872;9.390;2022-12-18T07:52:12;99631.53;;;-10.67;100.00
53719;BME280;39616;48.872;9.390;2022-12-18T07:54:42;99631.31;;;-10.54;100.00
53719;BME280;39616;48.872;9.390;2022-12-18T07:57:13;99645.72;;;-10.49;100.00
53719;BME280;39616;48.872;9.390;2022-12-18T07:59:46;99637.59;;;-10.45;100.00
53719;BME280;39616;48.872;9.390;2022-12-18T08:02:16;99649.91;;;-10.36;100.00
53719;BME280;39616;48.872;9.390;2022-12-18T08:04:46;99646.06;;;-10.23;100.00
53719;BME280;39616;48.872;9.390;2022-12-18T08:07:17;99642.81;;;-10.05;100.00
53719;BME280;39616;48.872;9.390;2022-12-18T08:09:47;99650.94;;;-9.78;100.00
53719;BME280;39616;48.872;9.390;2022-12-18T08:12:17;99636.63;;;-9.35;100.00
53719;BME280;39616;48.872;9.390;2022-12-18T08:14:48;99635.25;;;-9.10;100.00
53719;BME280;39616;48.872;9.390;2022-12-18T08:17:19;99631.38;;;-8.86;97.19
53719;BME280;39616;48.872;9.390;2022-12-18T08:19:49;99629.06;;;-8.42;96.86
53719;BME280;39616;48.872;9.390;2022-12-18T08:22:20;99625.50;;;-7.96;97.86
53719;BME280;39616;48.872;9.390;2022-12-18T08:24:50;99627.78;;;-7.56;95.24
53719;BME280;39616;48.872;9.390;2022-12-18T08:27:20;99628.13;;;-7.23;94.60
53719;BME280;39616;48.872;9.390;2022-12-18T08:29:51;99621.84;;;-6.86;93.07
53719;BME280;39616;48.872;9.390;2022-12-18T08:32:21;99630.69;;;-6.51;91.95
53719;BME280;39616;48.872;9.390;2022-12-18T08:34:52;99634.19;;;-6.17;89.84
53719;BME280;39616;48.872;9.390;2022-12-18T08:37:22;99634.31;;;-5.92;87.05
53719;BME280;39616;48.872;9.390;2022-12-18T08:39:52;99634.88;;;-5.56;88.13
53719;BME280;39616;48.872;9.390;2022-12-18T08:42:23;99630.03;;;-5.26;86.99
53719;BME280;39616;48.872;9.390;2022-12-18T08:45:12;99623.09;;;-4.95;86.33
53719;BME280;39616;48.872;9.390;2022-12-18T08:47:42;99624.41;;;-5.07;85.23
53719;BME280;39616;48.872;9.390;2022-12-18T08:50:12;99625.88;;;-5.04;87.50
53719;BME280;39616;48.872;9.390;2022-12-18T08:52:43;99629.06;;;-4.93;88.44
53719;BME280;39616;48.872;9.390;2022-12-18T08:55:13;99629.72;;;-4.91;87.52
53719;BME280;39616;48.872;9.390;2022-12-18T08:57:48;99624.59;;;-4.59;87.72
53719;BME280;39616;48.872;9.390;2022-12-18T09:00:18;99627.41;;;-4.69;86.27
53719;BME280;39616;48.872;9.390;2022-12-18T09:02:48;99628.56;;;-4.64;88.08
53719;BME280;39616;48.872;9.390;2022-12-18T09:05:19;99622.28;;;-4.63;88.51
53719;BME280;39616;48.872;9.390;2022-12-18T09:07:49;99616.63;;;-4.51;87.68
53719;BME280;39616;48.872;9.390;2022-12-18T09:10:19;99606.88;;;-4.51;88.31
53719;BME280;39616;48.872;9.390;2022-12-18T09:12:50;99604.16;;;-4.34;87.31
53719;BME280;39616;48.872;9.390;2022-12-18T09:15:20;99606.94;;;-4.11;87.33
53719;BME280;39616;48.872;9.390;2022-12-18T09:17:50;99599.25;;;-3.98;86.98
53719;BME280;39616;48.872;9.390;2022-12-18T09:20:22;99611.59;;;-3.74;85.42
53719;BME280;39616;48.872;9.390;2022-12-18T09:22:53;99602.84;;;-3.83;85.61
53719;BME280;39616;48.872;9.390;2022-12-18T09:25:23;99604.19;;;-3.79;85.16
53719;BME280;39616;48.872;9.390;2022-12-18T09:27:53;99601.13;;;-3.68;85.33
53719;BME280;39616;48.872;9.390;2022-12-18T09:30:23;99601.13;;;-3.36;83.77
53719;BME280;39616;48.872;9.390;2022-12-18T09:32:54;99592.19;;;-3.12;83.61
53719;BME280;39616;48.872;9.390;2022-12-18T09:35:25;99591.50;;;-2.92;82.08
53719;BME280;39616;48.872;9.390;2022-12-18T09:37:55;99597.16;;;-2.72;81.35
53719;BME280;39616;48.872;9.390;2022-12-18T09:40:36;99586.84;;;-2.37;79.63
53719;BME280;39616;48.872;9.390;2022-12-18T09:43:16;99591.53;;;-2.39;79.42
53719;BME280;39616;48.872;9.390;2022-12-18T09:45:52;99589.41;;;-2.29;79.55
53719;BME280;39616;48.872;9.390;2022-12-18T09:48:27;99590.72;;;-2.77;80.46
53719;BME280;39616;48.872;9.390;2022-12-18T09:51:04;99586.50;;;-2.86;81.18
53719;BME280;39616;48.872;9.390;2022-12-18T09:53:41;99582.84;;;-2.85;81.09
53719;BME280;39616;48.872;9.390;2022-12-18T09:56:19;99579.84;;;-3.05;82.78
53719;BME280;39616;48.872;9.390;2022-12-18T09:58:58;99576.88;;;-3.10;83.01
53719;BME280;39616;48.872;9.390;2022-12-18T10:01:30;99576.81;;;-3.02;83.73
53719;BME280;39616;48.872;9.390;2022-12-18T10:04:02;99576.00;;;-2.80;82.43
53719;BME280;39616;48.872;9.390;2022-12-18T10:06:45;99572.22;;;-2.85;82.78
53719;BME280;39616;48.872;9.390;2022-12-18T10:09:43;99569.38;;;-2.84;82.35
53719;BME280;39616;48.872;9.390;2022-12-18T10:12:25;99566.78;;;-2.92;82.49
53719;BME280;39616;48.872;9.390;2022-12-18T10:15:15;99572.91;;;-2.92;83.75
53719;BME280;39616;48.872;9.390;2022-12-18T10:17:54;99576.78;;;-2.94;82.41
53719;BME280;39616;48.872;9.390;2022-12-18T10:20:36;99568.03;;;-2.80;83.20
53719;BME280;39616;48.872;9.390;2022-12-18T10:26:03;99576.50;;;-2.61;83.50
53719;BME280;39616;48.872;9.390;2022-12-18T10:28:36;99583.34;;;-2.52;82.79
53719;BME280;39616;48.872;9.390;2022-12-18T10:31:15;99591.09;;;-2.65;80.97
53719;BME280;39616;48.872;9.390;2022-12-18T10:33:47;99581.00;;;-2.17;81.78
53719;BME280;39616;48.872;9.390;2022-12-18T10:36:17;99591.16;;;-2.06;79.73
53719;BME280;39616;48.872;9.390;2022-12-18T10:38:47;99583.72;;;-1.96;80.03
53719;BME280;39616;48.872;9.390;2022-12-18T10:44:14;99583.69;;;-1.30;77.01
53719;BME280;39616;48.872;9.390;2022-12-18T10:46:48;99578.06;;;-0.99;76.02
53719;BME280;39616;48.872;9.390;2022-12-18T10:49:23;99585.47;;;-0.73;74.24
53719;BME280;39616;48.872;9.390;2022-12-18T10:55:03;99588.13;;;-0.73;74.97
53719;BME280;39616;48.872;9.390;2022-12-18T10:57:38;99587.88;;;-0.78;74.18
53719;BME280;39616;48.872;9.390;2022-12-18T11:00:21;99601.88;;;-1.34;75.80
53719;BME280;39616;48.872;9.390;2022-12-18T11:02:52;99602.22;;;-1.73;77.42
53719;BME280;39616;48.872;9.390;2022-12-18T11:05:31;99586.59;;;-2.12;79.11
53719;BME280;39616;48.872;9.390;2022-12-18T11:08:02;99586.50;;;-2.04;79.96
53719;BME280;39616;48.872;9.390;2022-12-18T11:10:36;99586.59;;;-1.98;79.44
53719;BME280;39616;48.872;9.390;2022-12-18T11:13:11;99584.03;;;-2.21;80.13
53719;BME280;39616;48.872;9.390;2022-12-18T11:15:43;99583.47;;;-2.16;80.98
53719;BME280;39616;48.872;9.390;2022-12-18T11:18:27;99576.88;;;-2.05;80.81
53719;BME280;39616;48.872;9.390;2022-12-18T11:21:11;99574.78;;;-2.10;80.94
53719;BME280;39616;48.872;9.390;2022-12-18T11:23:49;99561.66;;;-2.11;80.84
53719;BME280;39616;48.872;9.390;2022-12-18T11:26:20;99562.47;;;-2.26;81.10
53719;BME280;39616;48.872;9.390;2022-12-18T11:29:08;99557.38;;;-2.12;81.74
53719;BME280;39616;48.872;9.390;2022-12-18T11:31:39;99543.16;;;-2.20;81.37
53719;BME280;39616;48.872;9.390;2022-12-18T11:34:42;99541.78;;;-2.15;81.34
53719;BME280;39616;48.872;9.390;2022-12-18T11:37:15;99544.16;;;-2.06;81.55
53719;BME280;39616;48.872;9.390;2022-12-18T11:39:52;99546.63;;;-2.04;81.34
53719;BME280;39616;48.872;9.390;2022-12-18T11:42:39;99548.47;;;-2.05;80.81
53719;BME280;39616;48.872;9.390;2022-12-18T11:50:19;99548.91;;;-2.60;82.94
53719;BME280;39616;48.872;9.390;2022-12-18T11:52:52;99531.25;;;-2.68;82.82
53719;BME280;39616;48.872;9.390;2022-12-18T12:01:10;99526.84;;;-2.76;83.78
53719;BME280;39616;48.872;9.390;2022-12-18T12:07:00;99529.41;;;-2.68;84.13
53719;BME280;39616;48.872;9.390;2022-12-18T12:12:39;99522.50;;;-2.77;83.75
53719;BME280;39616;48.872;9.390;2022-12-18T12:15:25;99512.16;;;-2.86;83.89
53719;BME280;39616;48.872;9.390;2022-12-18T12:26:27;99505.50;;;-2.82;83.93
53719;BME280;39616;48.872;9.390;2022-12-18T12:29:26;99505.56;;;-2.90;84.56
53719;BME280;39616;48.872;9.390;2022-12-18T12:38:13;99510.34;;;-2.86;84.39
53719;BME280;39616;48.872;9.390;2022-12-18T12:40:52;99514.00;;;-2.87;84.71
53719;BME280;39616;48.872;9.390;2022-12-18T12:43:35;99504.38;;;-2.73;84.00
53719;BME280;39616;48.872;9.390;2022-12-18T12:46:13;99506.59;;;-2.62;83.78
53719;BME280;39616;48.872;9.390;2022-12-18T12:48:53;99516.22;;;-2.61;83.70
53719;BME280;39616;48.872;9.390;2022-12-18T12:51:29;99508.72;;;-2.57;83.15
53719;BME280;39616;48.872;9.390;2022-12-18T12:54:02;99512.38;;;-2.58;83.03
53719;BME280;39616;48.872;9.390;2022-12-18T12:56:49;99510.72;;;-2.59;83.25
53719;BME280;39616;48.872;9.390;2022-12-18T12:59:31;99512.28;;;-2.65;83.94
53719;BME280;39616;48.872;9.390;2022-12-18T13:02:27;99506.78;;;-2.63;83.41
53719;BME280;39616;48.872;9.390;2022-12-18T13:08:05;99527.94;;;-2.55;83.35
53719;BME280;39616;48.872;9.390;2022-12-18T13:10:39;99522.91;;;-2.65;83.59
53719;BME280;39616;48.872;9.390;2022-12-18T13:13:13;99518.88;;;-2.76;84.44
53719;BME280;39616;48.872;9.390;2022-12-18T13:15:46;99520.31;;;-2.73;83.88
53719;BME280;39616;48.872;9.390;2022-12-18T13:18:21;99508.78;;;-2.65;83.63
53719;BME280;39616;48.872;9.390;2022-12-18T13:23:33;99516.03;;;-2.74;83.88
53719;BME280;39616;48.872;9.390;2022-12-18T13:34:19;99517.75;;;-2.81;84.91
53719;BME280;39616;48.872;9.390;2022-12-18T13:36:50;99517.94;;;-2.83;85.26
53719;BME280;39616;48.872;9.390;2022-12-18T13:39:31;99515.38;;;-2.76;84.79
53719;BME280;39616;48.872;9.390;2022-12-18T13:44:39;99508.31;;;-2.84;85.06
53719;BME280;39616;48.872;9.390;2022-12-18T13:47:27;99500.53;;;-2.85;85.72
53719;BME280;39616;48.872;9.390;2022-12-18T13:50:09;99499.72;;;-2.86;85.60
53719;BME280;39616;48.872;9.390;2022-12-18T13:52:42;99494.22;;;-2.84;85.90
53719;BME280;39616;48.872;9.390;2022-12-18T13:55:19;99490.56;;;-2.83;85.89
53719;BME280;39616;48.872;9.390;2022-12-18T13:58:03;99492.56;;;-2.85;86.33
53719;BME280;39616;48.872;9.390;2022-12-18T14:00:34;99503.38;;;-2.87;85.69
53719;BME280;39616;48.872;9.390;2022-12-18T14:03:17;99497.63;;;-2.90;86.33
53719;BME280;39616;48.872;9.390;2022-12-18T14:06:06;99496.41;;;-2.88;86.05
53719;BME280;39616;48.872;9.390;2022-12-18T14:08:39;99502.25;;;-2.93;86.54
53719;BME280;39616;48.872;9.390;2022-12-18T14:11:19;99490.72;;;-3.00;86.70
53719;BME280;39616;48.872;9.390;2022-12-18T14:13:52;99501.53;;;-3.01;87.31
53719;BME280;39616;48.872;9.390;2022-12-18T14:16:22;99499.59;;;-3.07;87.57
53719;BME280;39616;48.872;9.390;2022-12-18T14:18:57;99511.91;;;-3.14;87.49
53719;BME280;39616;48.872;9.390;2022-12-18T14:21:29;99510.16;;;-3.22;88.18
53719;BME280;39616;48.872;9.390;2022-12-18T14:24:20;99512.34;;;-3.26;88.60
53719;BME280;39616;48.872;9.390;2022-12-18T14:26:51;99510.84;;;-3.28;89.36
53719;BME280;39616;48.872;9.390;2022-12-18T14:29:26;99514.25;;;-3.34;89.81
53719;BME280;39616;48.872;9.390;2022-12-18T14:32:11;99518.53;;;-3.33;89.82
53719;BME280;39616;48.872;9.390;2022-12-18T14:34:44;99527.03;;;-3.38;90.18
53719;BME280;39616;48.872;9.390;2022-12-18T14:37:21;99518.47;;;-3.48;90.24
53719;BME280;39616;48.872;9.390;2022-12-18T14:39:59;99519.50;;;-3.49;91.12
53719;BME280;39616;48.872;9.390;2022-12-18T14:42:30;99518.59;;;-3.42;90.08
53719;BME280;39616;48.872;9.390;2022-12-18T14:45:32;99510.53;;;-3.48;89.91
53719;BME280;39616;48.872;9.390;2022-12-18T14:48:09;99509.38;;;-3.54;90.35
53719;BME280;39616;48.872;9.390;2022-12-18T14:50:42;99507.63;;;-3.61;90.57